sensor_id;sensor_type;location;lat;lon;timestamp;temperature;humidity
20416;DHT22;10367;52.202;5.996;2022-08-03T00:01:45;20.40;99.90
20416;DHT22;10367;52.202;5.996;2022-08-03T00:04:13;20.40;99.90
20416;DHT22;10367;52.202;5.996;2022-08-03T00:06:43;20.40;99.90
20416;DHT22;10367;52.202;5.996;2022-08-03T00:09:12;20.30;99.90
20416;DHT22;10367;52.202;5.996;2022-08-03T00:11:41;20.30;99.90
20416;DHT22;10367;52.202;5.996;2022-08-03T00:14:09;20.30;99.90
20416;DHT22;10367;52.202;5.996;2022-08-03T00:16:38;20.30;99.90
20416;DHT22;10367;52.202;5.996;2022-08-03T00:19:06;20.20;99.90
20416;DHT22;10367;52.202;5.996;2022-08-03T00:21:35;20.20;99.90
20416;DHT22;10367;52.202;5.996;2022-08-03T00:24:06;20.20;99.90
20416;DHT22;10367;52.202;5.996;2022-08-03T00:26:34;20.20;99.90
20416;DHT22;10367;52.202;5.996;2022-08-03T00:29:03;20.20;99.90
20416;DHT22;10367;52.202;5.996;2022-08-03T00:31:31;20.20;99.90
20416;DHT22;10367;52.202;5.996;2022-08-03T00:34:20;20.10;99.90
20416;DHT22;10367;52.202;5.996;2022-08-03T00:37:09;20.10;99.90
20416;DHT22;10367;52.202;5.996;2022-08-03T00:39:39;20.10;99.90
20416;DHT22;10367;52.202;5.996;2022-08-03T00:42:09;20.00;99.90
20416;DHT22;10367;52.202;5.996;2022-08-03T00:44:39;20.00;99.90
20416;DHT22;10367;52.202;5.996;2022-08-03T00:47:08;19.90;99.90
20416;DHT22;10367;52.202;5.996;2022-08-03T00:49:38;19.90;99.90
20416;DHT22;10367;52.202;5.996;2022-08-03T00:52:08;19.90;99.90
20416;DHT22;10367;52.202;5.996;2022-08-03T00:54:39;19.90;99.90
20416;DHT22;10367;52.202;5.996;2022-08-03T00:57:07;19.90;99.90
20416;DHT22;10367;52.202;5.996;2022-08-03T00:59:36;19.90;99.90
20416;DHT22;10367;52.202;5.996;2022-08-03T01:02:06;19.80;99.90
20416;DHT22;10367;52.202;5.996;2022-08-03T01:04:35;19.80;99.90
20416;DHT22;10367;52.202;5.996;2022-08-03T01:07:10;19.80;99.90
20416;DHT22;10367;52.202;5.996;2022-08-03T01:09:57;19.80;99.90
20416;DHT22;10367;52.202;5.996;2022-08-03T01:12:34;19.70;99.90
20416;DHT22;10367;52.202;5.996;2022-08-03T01:15:09;19.70;99.90
20416;DHT22;10367;52.202;5.996;2022-08-03T01:17:47;19.70;99.90
20416;DHT22;10367;52.202;5.996;2022-08-03T01:20:17;19.60;99.90
20416;DHT22;10367;52.202;5.996;2022-08-03T01:23:06;19.60;99.90
20416;DHT22;10367;52.202;5.996;2022-08-03T01:25:50;19.50;99.90
20416;DHT22;10367;52.202;5.996;2022-08-03T01:28:35;19.50;99.90
20416;DHT22;10367;52.202;5.996;2022-08-03T01:31:09;19.50;99.90
20416;DHT22;10367;52.202;5.996;2022-08-03T01:33:42;19.40;99.90
20416;DHT22;10367;52.202;5.996;2022-08-03T01:36:13;19.40;99.90
20416;DHT22;10367;52.202;5.996;2022-08-03T01:38:46;19.30;99.90
20416;DHT22;10367;52.202;5.996;2022-08-03T01:41:20;19.30;99.90
20416;DHT22;10367;52.202;5.996;2022-08-03T01:43:49;19.30;99.90
20416;DHT22;10367;52.202;5.996;2022-08-03T01:46:42;19.30;99.90
20416;DHT22;10367;52.202;5.996;2022-08-03T01:49:15;19.20;99.90
20416;DHT22;10367;52.202;5.996;2022-08-03T01:51:46;19.20;99.90
20416;DHT22;10367;52.202;5.996;2022-08-03T01:54:33;19.10;99.90
20416;DHT22;10367;52.202;5.996;2022-08-03T01:57:03;19.10;99.90
20416;DHT22;10367;52.202;5.996;2022-08-03T01:59:33;19.20;99.90
20416;DHT22;10367;52.202;5.996;2022-08-03T02:02:05;19.10;99.90
20416;DHT22;10367;52.202;5.996;2022-08-03T02:04:56;19.10;99.90
20416;DHT22;10367;52.202;5.996;2022-08-03T02:07:27;19.10;99.90
20416;DHT22;10367;52.202;5.996;2022-08-03T02:09:57;19.10;99.90
20416;DHT22;10367;52.202;5.996;2022-08-03T02:12:28;19.10;99.90
20416;DHT22;10367;52.202;5.996;2022-08-03T02:14:59;19.10;99.90
20416;DHT22;10367;52.202;5.996;2022-08-03T02:17:32;18.90;99.90
20416;DHT22;10367;52.202;5.996;2022-08-03T02:20:08;18.90;99.90
20416;DHT22;10367;52.202;5.996;2022-08-03T02:22:39;18.90;99.90
20416;DHT22;10367;52.202;5.996;2022-08-03T02:25:09;18.90;99.90
20416;DHT22;10367;52.202;5.996;2022-08-03T02:27:42;18.90;99.90
20416;DHT22;10367;52.202;5.996;2022-08-03T02:30:12;18.90;99.90
20416;DHT22;10367;52.202;5.996;2022-08-03T02:32:47;18.90;99.90
20416;DHT22;10367;52.202;5.996;2022-08-03T02:35:17;18.80;99.90
20416;DHT22;10367;52.202;5.996;2022-08-03T02:37:51;18.80;99.90
20416;DHT22;10367;52.202;5.996;2022-08-03T02:40:22;18.70;99.90
20416;DHT22;10367;52.202;5.996;2022-08-03T02:42:56;18.70;99.90
20416;DHT22;10367;52.202;5.996;2022-08-03T02:45:27;18.70;99.90
20416;DHT22;10367;52.202;5.996;2022-08-03T02:47:59;18.70;99.90
20416;DHT22;10367;52.202;5.996;2022-08-03T02:50:30;18.80;99.90
20416;DHT22;10367;52.202;5.996;2022-08-03T02:53:02;18.80;99.90
20416;DHT22;10367;52.202;5.996;2022-08-03T02:55:34;18.80;99.90
20416;DHT22;10367;52.202;5.996;2022-08-03T02:58:13;18.70;99.90
20416;DHT22;10367;52.202;5.996;2022-08-03T03:00:44;18.70;99.90
20416;DHT22;10367;52.202;5.996;2022-08-03T03:03:15;18.60;99.90
20416;DHT22;10367;52.202;5.996;2022-08-03T03:05:46;18.60;99.90
20416;DHT22;10367;52.202;5.996;2022-08-03T03:08:24;18.60;99.90
20416;DHT22;10367;52.202;5.996;2022-08-03T03:10:57;18.60;99.90
20416;DHT22;10367;52.202;5.996;2022-08-03T03:13:28;18.60;99.90
20416;DHT22;10367;52.202;5.996;2022-08-03T03:15:59;18.60;99.90
20416;DHT22;10367;52.202;5.996;2022-08-03T03:18:30;18.50;99.90
20416;DHT22;10367;52.202;5.996;2022-08-03T03:21:00;18.50;99.90
20416;DHT22;10367;52.202;5.996;2022-08-03T03:23:31;18.50;99.90
20416;DHT22;10367;52.202;5.996;2022-08-03T03:26:03;18.50;99.90
20416;DHT22;10367;52.202;5.996;2022-08-03T03:28:32;18.50;99.90
20416;DHT22;10367;52.202;5.996;2022-08-03T03:31:03;18.50;99.90
20416;DHT22;10367;52.202;5.996;2022-08-03T03:33:34;18.40;99.90
20416;DHT22;10367;52.202;5.996;2022-08-03T03:36:04;18.40;99.90
20416;DHT22;10367;52.202;5.996;2022-08-03T03:38:34;18.40;99.90
20416;DHT22;10367;52.202;5.996;2022-08-03T03:41:03;18.40;99.90
20416;DHT22;10367;52.202;5.996;2022-08-03T03:43:32;18.40;99.90
20416;DHT22;10367;52.202;5.996;2022-08-03T03:46:01;18.40;99.90
20416;DHT22;10367;52.202;5.996;2022-08-03T03:48:31;18.40;99.90
20416;DHT22;10367;52.202;5.996;2022-08-03T03:51:01;18.40;99.90
20416;DHT22;10367;52.202;5.996;2022-08-03T03:53:30;18.40;99.90
20416;DHT22;10367;52.202;5.996;2022-08-03T03:55:59;18.40;99.90
20416;DHT22;10367;52.202;5.996;2022-08-03T03:58:31;18.40;99.90
20416;DHT22;10367;52.202;5.996;2022-08-03T04:01:00;18.40;99.90
20416;DHT22;10367;52.202;5.996;2022-08-03T04:03:29;18.40;99.90
20416;DHT22;10367;52.202;5.996;2022-08-03T04:05:57;18.40;99.90
20416;DHT22;10367;52.202;5.996;2022-08-03T04:08:45;18.40;99.90
20416;DHT22;10367;52.202;5.996;2022-08-03T04:11:37;18.40;99.90
20416;DHT22;10367;52.202;5.996;2022-08-03T04:14:09;18.40;99.90
20416;DHT22;10367;52.202;5.996;2022-08-03T04:16:41;18.40;99.90
20416;DHT22;10367;52.202;5.996;2022-08-03T04:19:14;18.40;99.90
20416;DHT22;10367;52.202;5.996;2022-08-03T04:21:50;18.40;99.90
20416;DHT22;10367;52.202;5.996;2022-08-03T04:24:27;18.40;99.90
20416;DHT22;10367;52.202;5.996;2022-08-03T04:26:58;18.50;99.90
20416;DHT22;10367;52.202;5.996;2022-08-03T04:29:30;18.50;99.90
20416;DHT22;10367;52.202;5.996;2022-08-03T04:32:01;18.50;99.90
20416;DHT22;10367;52.202;5.996;2022-08-03T04:34:32;18.60;99.90
20416;DHT22;10367;52.202;5.996;2022-08-03T04:37:04;18.60;99.90
20416;DHT22;10367;52.202;5.996;2022-08-03T04:39:36;18.60;99.90
20416;DHT22;10367;52.202;5.996;2022-08-03T04:42:07;18.60;99.90
20416;DHT22;10367;52.202;5.996;2022-08-03T04:44:40;18.60;99.90
20416;DHT22;10367;52.202;5.996;2022-08-03T04:47:09;18.70;99.90
20416;DHT22;10367;52.202;5.996;2022-08-03T04:49:38;18.80;99.90
20416;DHT22;10367;52.202;5.996;2022-08-03T04:52:07;18.80;99.90
20416;DHT22;10367;52.202;5.996;2022-08-03T04:54:42;18.90;99.90
20416;DHT22;10367;52.202;5.996;2022-08-03T04:57:17;18.90;99.90
20416;DHT22;10367;52.202;5.996;2022-08-03T04:59:50;18.90;99.90
20416;DHT22;10367;52.202;5.996;2022-08-03T05:02:30;19.00;99.90
20416;DHT22;10367;52.202;5.996;2022-08-03T05:04:59;19.10;99.90
20416;DHT22;10367;52.202;5.996;2022-08-03T05:07:27;19.10;99.90
20416;DHT22;10367;52.202;5.996;2022-08-03T05:10:08;19.20;99.90
20416;DHT22;10367;52.202;5.996;2022-08-03T05:12:43;19.20;99.90
20416;DHT22;10367;52.202;5.996;2022-08-03T05:15:13;19.30;99.90
20416;DHT22;10367;52.202;5.996;2022-08-03T05:17:42;19.40;99.90
20416;DHT22;10367;52.202;5.996;2022-08-03T05:20:11;19.40;99.90
20416;DHT22;10367;52.202;5.996;2022-08-03T05:22:44;19.50;99.90
20416;DHT22;10367;52.202;5.996;2022-08-03T05:25:14;19.50;99.90
20416;DHT22;10367;52.202;5.996;2022-08-03T05:27:46;19.60;99.90
20416;DHT22;10367;52.202;5.996;2022-08-03T05:30:15;19.60;99.90
20416;DHT22;10367;52.202;5.996;2022-08-03T05:33:00;19.60;99.90
20416;DHT22;10367;52.202;5.996;2022-08-03T05:35:29;19.70;99.90
20416;DHT22;10367;52.202;5.996;2022-08-03T05:38:18;19.70;99.90
20416;DHT22;10367;52.202;5.996;2022-08-03T05:40:57;19.70;99.90
20416;DHT22;10367;52.202;5.996;2022-08-03T05:43:46;19.80;99.90
20416;DHT22;10367;52.202;5.996;2022-08-03T05:46:16;19.80;99.90
20416;DHT22;10367;52.202;5.996;2022-08-03T05:48:44;19.80;99.90
20416;DHT22;10367;52.202;5.996;2022-08-03T05:51:13;19.80;99.90
20416;DHT22;10367;52.202;5.996;2022-08-03T05:53:42;19.80;99.90
20416;DHT22;10367;52.202;5.996;2022-08-03T05:56:12;19.80;99.90
20416;DHT22;10367;52.202;5.996;2022-08-03T05:58:44;19.80;99.90
20416;DHT22;10367;52.202;5.996;2022-08-03T06:01:13;19.90;99.90
20416;DHT22;10367;52.202;5.996;2022-08-03T06:03:42;19.90;99.90
20416;DHT22;10367;52.202;5.996;2022-08-03T06:06:11;19.90;99.90
20416;DHT22;10367;52.202;5.996;2022-08-03T06:08:40;20.00;99.90
20416;DHT22;10367;52.202;5.996;2022-08-03T06:11:09;20.00;99.90
20416;DHT22;10367;52.202;5.996;2022-08-03T06:13:39;20.10;99.90
20416;DHT22;10367;52.202;5.996;2022-08-03T06:16:08;20.10;99.90
20416;DHT22;10367;52.202;5.996;2022-08-03T06:18:37;20.10;99.90
20416;DHT22;10367;52.202;5.996;2022-08-03T06:21:07;20.10;99.90
20416;DHT22;10367;52.202;5.996;2022-08-03T06:23:43;20.20;99.90
20416;DHT22;10367;52.202;5.996;2022-08-03T06:26:23;20.20;99.90
20416;DHT22;10367;52.202;5.996;2022-08-03T06:28:53;20.20;99.90
20416;DHT22;10367;52.202;5.996;2022-08-03T06:31:23;20.30;99.90
20416;DHT22;10367;52.202;5.996;2022-08-03T06:34:01;20.40;99.90
20416;DHT22;10367;52.202;5.996;2022-08-03T06:36:50;20.40;99.90
20416;DHT22;10367;52.202;5.996;2022-08-03T06:39:19;20.50;99.90
20416;DHT22;10367;52.202;5.996;2022-08-03T06:41:51;20.60;99.90
20416;DHT22;10367;52.202;5.996;2022-08-03T06:44:21;20.70;99.90
20416;DHT22;10367;52.202;5.996;2022-08-03T06:46:50;20.70;99.90
20416;DHT22;10367;52.202;5.996;2022-08-03T06:49:19;20.80;99.90
20416;DHT22;10367;52.202;5.996;2022-08-03T06:51:48;20.80;99.90
20416;DHT22;10367;52.202;5.996;2022-08-03T06:54:34;20.90;99.90
20416;DHT22;10367;52.202;5.996;2022-08-03T06:57:04;20.90;99.90
20416;DHT22;10367;52.202;5.996;2022-08-03T06:59:35;21.00;99.90
20416;DHT22;10367;52.202;5.996;2022-08-03T07:02:24;21.10;99.90
20416;DHT22;10367;52.202;5.996;2022-08-03T07:04:57;21.20;99.90
20416;DHT22;10367;52.202;5.996;2022-08-03T07:07:26;21.20;99.90
20416;DHT22;10367;52.202;5.996;2022-08-03T07:09:55;21.20;99.90
20416;DHT22;10367;52.202;5.996;2022-08-03T07:12:26;21.30;99.90
20416;DHT22;10367;52.202;5.996;2022-08-03T07:14:57;21.40;99.90
20416;DHT22;10367;52.202;5.996;2022-08-03T07:17:30;21.50;99.90
20416;DHT22;10367;52.202;5.996;2022-08-03T07:19:59;21.50;99.90
20416;DHT22;10367;52.202;5.996;2022-08-03T07:22:28;21.60;99.90
20416;DHT22;10367;52.202;5.996;2022-08-03T07:24:57;21.70;99.90
20416;DHT22;10367;52.202;5.996;2022-08-03T07:27:26;21.90;99.90
20416;DHT22;10367;52.202;5.996;2022-08-03T07:29:57;21.90;99.90
20416;DHT22;10367;52.202;5.996;2022-08-03T07:32:27;22.00;99.90
20416;DHT22;10367;52.202;5.996;2022-08-03T07:34:57;22.00;99.90
20416;DHT22;10367;52.202;5.996;2022-08-03T07:37:28;22.00;99.90
20416;DHT22;10367;52.202;5.996;2022-08-03T07:39:57;22.10;99.90
20416;DHT22;10367;52.202;5.996;2022-08-03T07:42:26;22.10;99.90
20416;DHT22;10367;52.202;5.996;2022-08-03T07:44:57;22.20;99.90
20416;DHT22;10367;52.202;5.996;2022-08-03T07:47:28;22.20;99.90
20416;DHT22;10367;52.202;5.996;2022-08-03T07:50:03;22.30;99.90
20416;DHT22;10367;52.202;5.996;2022-08-03T07:52:35;22.40;99.90
20416;DHT22;10367;52.202;5.996;2022-08-03T07:55:17;22.30;99.90
20416;DHT22;10367;52.202;5.996;2022-08-03T07:57:47;22.40;99.90
20416;DHT22;10367;52.202;5.996;2022-08-03T08:00:27;22.40;99.90
20416;DHT22;10367;52.202;5.996;2022-08-03T08:02:56;22.60;99.90
20416;DHT22;10367;52.202;5.996;2022-08-03T08:05:26;22.70;99.90
20416;DHT22;10367;52.202;5.996;2022-08-03T08:07:55;22.80;99.90
20416;DHT22;10367;52.202;5.996;2022-08-03T08:10:24;22.90;99.90
20416;DHT22;10367;52.202;5.996;2022-08-03T08:12:54;22.90;99.90
20416;DHT22;10367;52.202;5.996;2022-08-03T08:15:23;22.90;99.90
20416;DHT22;10367;52.202;5.996;2022-08-03T08:17:55;22.90;99.90
20416;DHT22;10367;52.202;5.996;2022-08-03T08:20:25;22.90;99.90
20416;DHT22;10367;52.202;5.996;2022-08-03T08:22:58;23.00;99.90
20416;DHT22;10367;52.202;5.996;2022-08-03T08:25:30;23.10;99.90
20416;DHT22;10367;52.202;5.996;2022-08-03T08:27:59;23.30;99.90
20416;DHT22;10367;52.202;5.996;2022-08-03T08:30:50;23.40;99.90
20416;DHT22;10367;52.202;5.996;2022-08-03T08:33:20;23.50;99.90
20416;DHT22;10367;52.202;5.996;2022-08-03T08:35:51;23.60;99.90
20416;DHT22;10367;52.202;5.996;2022-08-03T08:38:21;23.70;99.90
20416;DHT22;10367;52.202;5.996;2022-08-03T08:40:50;23.90;99.90
20416;DHT22;10367;52.202;5.996;2022-08-03T08:43:18;24.10;99.90
20416;DHT22;10367;52.202;5.996;2022-08-03T08:45:48;24.20;99.90
20416;DHT22;10367;52.202;5.996;2022-08-03T08:48:22;24.30;99.90
20416;DHT22;10367;52.202;5.996;2022-08-03T08:50:52;24.40;99.90
20416;DHT22;10367;52.202;5.996;2022-08-03T08:53:22;24.40;99.90
20416;DHT22;10367;52.202;5.996;2022-08-03T08:55:56;24.50;99.90
20416;DHT22;10367;52.202;5.996;2022-08-03T08:58:33;24.70;99.90
20416;DHT22;10367;52.202;5.996;2022-08-03T09:01:05;24.90;99.90
20416;DHT22;10367;52.202;5.996;2022-08-03T09:03:35;25.10;99.90
20416;DHT22;10367;52.202;5.996;2022-08-03T09:06:04;25.10;99.90
20416;DHT22;10367;52.202;5.996;2022-08-03T09:08:33;25.20;99.90
20416;DHT22;10367;52.202;5.996;2022-08-03T09:11:02;25.40;99.90
20416;DHT22;10367;52.202;5.996;2022-08-03T09:13:32;25.60;99.90
20416;DHT22;10367;52.202;5.996;2022-08-03T09:16:20;25.60;99.90
20416;DHT22;10367;52.202;5.996;2022-08-03T09:18:52;25.70;99.90
20416;DHT22;10367;52.202;5.996;2022-08-03T09:21:23;25.90;99.90
20416;DHT22;10367;52.202;5.996;2022-08-03T09:24:02;26.10;99.90
20416;DHT22;10367;52.202;5.996;2022-08-03T09:26:36;26.10;99.90
20416;DHT22;10367;52.202;5.996;2022-08-03T09:29:07;26.10;99.90
20416;DHT22;10367;52.202;5.996;2022-08-03T09:31:43;26.30;99.90
20416;DHT22;10367;52.202;5.996;2022-08-03T09:34:14;26.40;99.90
20416;DHT22;10367;52.202;5.996;2022-08-03T09:36:44;26.50;99.90
20416;DHT22;10367;52.202;5.996;2022-08-03T09:39:15;26.70;99.90
20416;DHT22;10367;52.202;5.996;2022-08-03T09:41:45;26.90;99.90
20416;DHT22;10367;52.202;5.996;2022-08-03T09:44:14;27.00;99.90
20416;DHT22;10367;52.202;5.996;2022-08-03T09:46:54;27.10;99.90
20416;DHT22;10367;52.202;5.996;2022-08-03T09:49:25;27.30;99.90
20416;DHT22;10367;52.202;5.996;2022-08-03T09:51:54;27.40;99.90
20416;DHT22;10367;52.202;5.996;2022-08-03T09:54:46;27.60;99.90
20416;DHT22;10367;52.202;5.996;2022-08-03T09:57:22;27.90;99.90
20416;DHT22;10367;52.202;5.996;2022-08-03T09:59:53;28.10;99.90
20416;DHT22;10367;52.202;5.996;2022-08-03T10:02:34;28.10;99.90
20416;DHT22;10367;52.202;5.996;2022-08-03T10:05:05;28.40;99.90
20416;DHT22;10367;52.202;5.996;2022-08-03T10:07:42;28.50;99.90
20416;DHT22;10367;52.202;5.996;2022-08-03T10:10:12;28.50;99.90
20416;DHT22;10367;52.202;5.996;2022-08-03T10:12:59;28.50;99.90
20416;DHT22;10367;52.202;5.996;2022-08-03T10:15:28;28.50;99.90
20416;DHT22;10367;52.202;5.996;2022-08-03T10:18:17;28.60;99.90
20416;DHT22;10367;52.202;5.996;2022-08-03T10:20:50;28.80;99.90
20416;DHT22;10367;52.202;5.996;2022-08-03T10:23:20;29.00;99.90
20416;DHT22;10367;52.202;5.996;2022-08-03T10:25:57;29.20;99.90
20416;DHT22;10367;52.202;5.996;2022-08-03T10:28:33;29.30;99.80
20416;DHT22;10367;52.202;5.996;2022-08-03T10:31:04;29.30;99.50
20416;DHT22;10367;52.202;5.996;2022-08-03T10:33:37;29.40;99.30
20416;DHT22;10367;52.202;5.996;2022-08-03T10:36:22;29.60;98.40
20416;DHT22;10367;52.202;5.996;2022-08-03T10:38:52;29.60;97.70
20416;DHT22;10367;52.202;5.996;2022-08-03T10:41:25;29.60;97.20
20416;DHT22;10367;52.202;5.996;2022-08-03T10:44:02;29.60;96.90
20416;DHT22;10367;52.202;5.996;2022-08-03T10:46:32;29.70;96.20
20416;DHT22;10367;52.202;5.996;2022-08-03T10:49:02;29.70;95.40
20416;DHT22;10367;52.202;5.996;2022-08-03T10:51:33;29.80;95.00
20416;DHT22;10367;52.202;5.996;2022-08-03T10:54:03;29.90;94.70
20416;DHT22;10367;52.202;5.996;2022-08-03T10:56:38;30.10;94.30
20416;DHT22;10367;52.202;5.996;2022-08-03T10:59:57;30.20;93.90
20416;DHT22;10367;52.202;5.996;2022-08-03T11:05:44;30.70;91.60
20416;DHT22;10367;52.202;5.996;2022-08-03T11:08:29;30.90;91.20
20416;DHT22;10367;52.202;5.996;2022-08-03T11:11:00;31.10;89.90
20416;DHT22;10367;52.202;5.996;2022-08-03T11:13:30;31.10;89.80
20416;DHT22;10367;52.202;5.996;2022-08-03T11:16:02;31.10;89.00
20416;DHT22;10367;52.202;5.996;2022-08-03T11:18:58;30.90;88.30
20416;DHT22;10367;52.202;5.996;2022-08-03T11:21:51;31.00;86.20
20416;DHT22;10367;52.202;5.996;2022-08-03T11:27:29;31.20;83.20
20416;DHT22;10367;52.202;5.996;2022-08-03T11:30:02;31.00;83.90
20416;DHT22;10367;52.202;5.996;2022-08-03T11:35:30;31.40;81.90
20416;DHT22;10367;52.202;5.996;2022-08-03T11:38:07;31.60;81.80
20416;DHT22;10367;52.202;5.996;2022-08-03T11:40:41;31.20;81.70
20416;DHT22;10367;52.202;5.996;2022-08-03T11:43:45;31.30;81.30
20416;DHT22;10367;52.202;5.996;2022-08-03T11:46:15;31.80;78.60
20416;DHT22;10367;52.202;5.996;2022-08-03T11:49:03;31.90;78.50
20416;DHT22;10367;52.202;5.996;2022-08-03T11:51:37;31.80;78.70
20416;DHT22;10367;52.202;5.996;2022-08-03T11:54:07;32.00;77.60
20416;DHT22;10367;52.202;5.996;2022-08-03T11:56:46;31.80;76.80
20416;DHT22;10367;52.202;5.996;2022-08-03T11:59:16;31.90;75.90
20416;DHT22;10367;52.202;5.996;2022-08-03T12:01:49;32.20;75.20
20416;DHT22;10367;52.202;5.996;2022-08-03T12:04:18;32.60;73.80
20416;DHT22;10367;52.202;5.996;2022-08-03T12:06:59;32.90;72.70
20416;DHT22;10367;52.202;5.996;2022-08-03T12:09:28;32.80;70.60
20416;DHT22;10367;52.202;5.996;2022-08-03T12:11:56;32.20;72.70
20416;DHT22;10367;52.202;5.996;2022-08-03T12:14:28;31.80;73.10
20416;DHT22;10367;52.202;5.996;2022-08-03T12:17:17;31.80;73.20
20416;DHT22;10367;52.202;5.996;2022-08-03T12:19:46;32.20;72.00
20416;DHT22;10367;52.202;5.996;2022-08-03T12:22:15;32.40;71.60
20416;DHT22;10367;52.202;5.996;2022-08-03T12:24:44;32.80;70.40
20416;DHT22;10367;52.202;5.996;2022-08-03T12:27:22;32.90;70.20
20416;DHT22;10367;52.202;5.996;2022-08-03T12:29:54;32.90;70.10
20416;DHT22;10367;52.202;5.996;2022-08-03T12:32:25;33.30;68.90
20416;DHT22;10367;52.202;5.996;2022-08-03T12:34:55;33.70;67.40
20416;DHT22;10367;52.202;5.996;2022-08-03T12:37:28;33.80;66.80
20416;DHT22;10367;52.202;5.996;2022-08-03T12:39:58;33.80;66.90
20416;DHT22;10367;52.202;5.996;2022-08-03T12:42:38;33.90;66.10
20416;DHT22;10367;52.202;5.996;2022-08-03T12:45:22;33.60;66.20
20416;DHT22;10367;52.202;5.996;2022-08-03T12:47:53;33.60;65.30
20416;DHT22;10367;52.202;5.996;2022-08-03T12:50:23;33.60;65.00
20416;DHT22;10367;52.202;5.996;2022-08-03T12:52:53;33.30;65.20
20416;DHT22;10367;52.202;5.996;2022-08-03T12:55:23;33.30;64.80
20416;DHT22;10367;52.202;5.996;2022-08-03T12:57:53;33.10;64.90
20416;DHT22;10367;52.202;5.996;2022-08-03T13:00:24;33.50;64.40
20416;DHT22;10367;52.202;5.996;2022-08-03T13:02:59;33.60;63.60
20416;DHT22;10367;52.202;5.996;2022-08-03T13:05:50;33.50;63.20
20416;DHT22;10367;52.202;5.996;2022-08-03T13:08:19;33.70;62.70
20416;DHT22;10367;52.202;5.996;2022-08-03T13:10:48;33.80;62.40
20416;DHT22;10367;52.202;5.996;2022-08-03T13:13:17;33.80;61.90
20416;DHT22;10367;52.202;5.996;2022-08-03T13:15:48;33.50;61.90
20416;DHT22;10367;52.202;5.996;2022-08-03T13:18:18;33.80;61.60
20416;DHT22;10367;52.202;5.996;2022-08-03T13:20:47;34.00;60.50
20416;DHT22;10367;52.202;5.996;2022-08-03T13:23:15;33.80;60.30
20416;DHT22;10367;52.202;5.996;2022-08-03T13:25:49;33.70;60.30
20416;DHT22;10367;52.202;5.996;2022-08-03T13:28:22;34.10;59.50
20416;DHT22;10367;52.202;5.996;2022-08-03T13:30:52;34.50;58.90
20416;DHT22;10367;52.202;5.996;2022-08-03T13:33:21;34.60;58.40
20416;DHT22;10367;52.202;5.996;2022-08-03T13:35:50;34.80;57.90
20416;DHT22;10367;52.202;5.996;2022-08-03T13:38:19;34.40;58.30
20416;DHT22;10367;52.202;5.996;2022-08-03T13:40:53;34.30;58.50
20416;DHT22;10367;52.202;5.996;2022-08-03T13:43:22;34.60;58.30
20416;DHT22;10367;52.202;5.996;2022-08-03T13:45:52;34.70;57.80
20416;DHT22;10367;52.202;5.996;2022-08-03T13:48:24;33.80;58.50
20416;DHT22;10367;52.202;5.996;2022-08-03T13:51:04;33.30;59.60
20416;DHT22;10367;52.202;5.996;2022-08-03T13:53:49;33.40;59.40
20416;DHT22;10367;52.202;5.996;2022-08-03T13:56:18;33.10;60.00
20416;DHT22;10367;52.202;5.996;2022-08-03T13:58:47;33.60;59.70
20416;DHT22;10367;52.202;5.996;2022-08-03T14:01:17;34.40;58.70
20416;DHT22;10367;52.202;5.996;2022-08-03T14:04:06;34.40;59.00
20416;DHT22;10367;52.202;5.996;2022-08-03T14:06:48;34.00;59.70
20416;DHT22;10367;52.202;5.996;2022-08-03T14:09:17;33.90;59.90
20416;DHT22;10367;52.202;5.996;2022-08-03T14:11:46;33.90;60.60
20416;DHT22;10367;52.202;5.996;2022-08-03T14:14:34;34.70;59.70
20416;DHT22;10367;52.202;5.996;2022-08-03T14:17:04;34.60;59.90
20416;DHT22;10367;52.202;5.996;2022-08-03T14:19:34;34.30;60.10
20416;DHT22;10367;52.202;5.996;2022-08-03T14:22:20;34.10;60.90
20416;DHT22;10367;52.202;5.996;2022-08-03T14:24:49;34.40;60.30
20416;DHT22;10367;52.202;5.996;2022-08-03T14:27:19;34.30;60.80
20416;DHT22;10367;52.202;5.996;2022-08-03T14:29:48;34.70;60.30
20416;DHT22;10367;52.202;5.996;2022-08-03T14:32:18;34.70;60.30
20416;DHT22;10367;52.202;5.996;2022-08-03T14:34:47;34.30;60.90
20416;DHT22;10367;52.202;5.996;2022-08-03T14:37:15;34.00;61.80
20416;DHT22;10367;52.202;5.996;2022-08-03T14:39:44;34.10;61.30
20416;DHT22;10367;52.202;5.996;2022-08-03T14:42:30;33.80;61.70
20416;DHT22;10367;52.202;5.996;2022-08-03T14:44:59;33.50;62.50
20416;DHT22;10367;52.202;5.996;2022-08-03T14:47:36;34.20;61.80
20416;DHT22;10367;52.202;5.996;2022-08-03T14:50:25;34.40;61.00
20416;DHT22;10367;52.202;5.996;2022-08-03T14:53:07;33.80;62.20
20416;DHT22;10367;52.202;5.996;2022-08-03T14:55:35;34.20;61.90
20416;DHT22;10367;52.202;5.996;2022-08-03T14:58:17;34.20;61.80
20416;DHT22;10367;52.202;5.996;2022-08-03T15:00:49;34.50;61.40
20416;DHT22;10367;52.202;5.996;2022-08-03T15:03:20;34.60;61.50
20416;DHT22;10367;52.202;5.996;2022-08-03T15:05:50;34.40;61.60
20416;DHT22;10367;52.202;5.996;2022-08-03T15:08:19;34.30;61.50
20416;DHT22;10367;52.202;5.996;2022-08-03T15:10:48;34.30;61.40
20416;DHT22;10367;52.202;5.996;2022-08-03T15:13:17;33.80;62.30
20416;DHT22;10367;52.202;5.996;2022-08-03T15:15:47;33.70;62.50
20416;DHT22;10367;52.202;5.996;2022-08-03T15:18:19;33.50;63.20
20416;DHT22;10367;52.202;5.996;2022-08-03T15:20:48;33.80;62.50
20416;DHT22;10367;52.202;5.996;2022-08-03T15:23:17;34.40;62.10
20416;DHT22;10367;52.202;5.996;2022-08-03T15:25:46;34.00;63.10
20416;DHT22;10367;52.202;5.996;2022-08-03T15:28:35;33.50;63.40
20416;DHT22;10367;52.202;5.996;2022-08-03T15:31:04;33.90;63.10
20416;DHT22;10367;52.202;5.996;2022-08-03T15:33:35;34.10;62.50
20416;DHT22;10367;52.202;5.996;2022-08-03T15:36:04;34.30;62.60
20416;DHT22;10367;52.202;5.996;2022-08-03T15:38:33;34.80;61.80
20416;DHT22;10367;52.202;5.996;2022-08-03T15:41:01;34.60;62.10
20416;DHT22;10367;52.202;5.996;2022-08-03T15:43:30;34.80;62.00
20416;DHT22;10367;52.202;5.996;2022-08-03T15:46:05;34.60;61.90
20416;DHT22;10367;52.202;5.996;2022-08-03T15:48:55;34.10;62.50
20416;DHT22;10367;52.202;5.996;2022-08-03T15:51:23;33.80;63.40
20416;DHT22;10367;52.202;5.996;2022-08-03T15:53:52;34.20;62.70
20416;DHT22;10367;52.202;5.996;2022-08-03T15:56:22;34.30;62.30
20416;DHT22;10367;52.202;5.996;2022-08-03T15:58:53;34.30;62.60
20416;DHT22;10367;52.202;5.996;2022-08-03T16:01:39;34.50;61.90
20416;DHT22;10367;52.202;5.996;2022-08-03T16:04:09;34.00;62.90
20416;DHT22;10367;52.202;5.996;2022-08-03T16:06:38;33.90;63.80
20416;DHT22;10367;52.202;5.996;2022-08-03T16:09:07;34.30;62.50
20416;DHT22;10367;52.202;5.996;2022-08-03T16:11:56;34.20;62.20
20416;DHT22;10367;52.202;5.996;2022-08-03T16:14:25;33.70;63.30
20416;DHT22;10367;52.202;5.996;2022-08-03T16:17:02;33.50;63.70